Time;durP1;ratioP1;P1;durP2;ratioP2;P2;SDS_P1;SDS_P2;PMS_P1;PMS_P2;Temp;Humidity;BMP_temperature;BMP_pressure;BME280_temperature;BME280_humidity;BME280_pressure;Samples;Min_cycle;Max_cycle;Signal;HPM_P1;HPM_P2
2023/07/13 00:01:31;;;;;;;;;19.25;19.25;;;;;27.68;46.48;101014.41;146613;629;47012;-66
2023/07/13 00:04:38;;;;;;;;;18.75;17.25;;;;;27.78;45.82;101013.37;146619;567;46011;-67
2023/07/13 00:07:42;;;;;;;;;18.00;15.75;;;;;27.87;46.07;101013.25;146613;579;47012;-68
2023/07/13 00:11:02;;;;;;;;;18.50;15.75;;;;;25.52;45.36;100597.91;146619;586;46010;-65
2023/07/13 00:14:04;;;;;;;;;18.00;16.75;;;;;28.00;46.51;101008.59;146614;579;46016;-66
2023/07/13 00:17:03;;;;;;;;;17.00;16.00;;;;;28.07;45.27;101005.81;146616;569;46020;-67
2023/07/13 00:19:59;;;;;;;;;18.50;16.25;;;;;28.15;45.63;101003.03;146610;581;47013;-63
2023/07/13 00:23:05;;;;;;;;;16.00;14.25;;;;;28.24;45.73;101005.53;146617;565;46010;-65
2023/07/13 00:26:03;;;;;;;;;19.00;17.25;;;;;28.29;45.94;101006.34;146614;565;46015;-66
2023/07/13 00:28:55;;;;;;;;;19.25;16.25;;;;;28.32;46.39;101006.28;146611;571;47021;-66
2023/07/13 00:31:51;;;;;;;;;20.50;20.25;;;;;28.35;46.25;101001.78;146615;571;46012;-65
2023/07/13 00:34:59;;;;;;;;;18.25;18.25;;;;;28.36;45.97;101012.44;146612;604;46010;-65
2023/07/13 00:37:59;;;;;;;;;17.50;15.50;;;;;28.37;46.49;101002.66;146613;590;47016;-65
2023/07/13 00:41:14;;;;;;;;;20.50;16.50;;;;;28.35;44.45;101002.69;146617;614;46021;-66
2023/07/13 00:44:27;;;;;;;;;17.00;15.50;;;;;28.29;46.60;101002.78;146615;563;46014;-65
2023/07/13 00:47:27;;;;;;;;;18.25;16.75;;;;;28.18;45.83;100997.62;146617;572;46010;-64
2023/07/13 00:50:26;;;;;;;;;19.00;17.25;;;;;28.13;47.42;101004.84;146596;606;48917;-65
2023/07/13 00:53:29;;;;;;;;;19.25;18.00;;;;;28.09;47.33;101008.44;146617;609;46010;-64
2023/07/13 00:56:24;;;;;;;;;17.50;17.00;;;;;27.96;47.18;101007.78;146610;608;47014;-65
2023/07/13 00:59:37;;;;;;;;;16.50;15.50;;;;;25.23;45.51;100574.34;146616;650;47010;-65
2023/07/13 01:02:48;;;;;;;;;19.00;18.00;;;;;27.55;46.63;101001.25;146610;604;47013;-65
2023/07/13 01:05:55;;;;;;;;;20.75;18.00;;;;;24.96;46.09;100584.34;146618;608;46010;-63
2023/07/13 01:09:10;;;;;;;;;17.25;16.50;;;;;27.17;46.73;100999.13;146612;672;47014;-64
2023/07/13 01:12:19;;;;;;;;;18.25;16.75;;;;;27.01;45.78;100997.50;146616;603;47010;-66
2023/07/13 01:15:52;;;;;;;;;19.00;17.00;;;;;24.41;45.25;100572.44;146617;668;46014;-65
2023/07/13 01:18:46;;;;;;;;;21.25;20.00;;;;;26.81;45.90;100993.31;146617;564;46020;-65
2023/07/13 01:21:46;;;;;;;;;21.00;18.00;;;;;26.78;44.97;100993.34;146616;569;45584;-65
2023/07/13 01:24:45;;;;;;;;;16.75;16.75;;;;;26.74;45.37;100991.62;146618;658;47019;-66
2023/07/13 01:27:41;;;;;;;;;18.25;18.25;;;;;26.70;45.76;100993.44;146612;566;46016;-66
2023/07/13 01:30:38;;;;;;;;;18.75;17.25;;;;;26.69;46.00;100996.09;146619;628;46010;-66
2023/07/13 01:33:37;;;;;;;;;18.50;18.00;;;;;26.65;44.69;100987.28;146611;566;46017;-66
2023/07/13 01:36:54;;;;;;;;;18.75;17.25;;;;;26.56;45.10;100990.03;146615;605;46020;-66
2023/07/13 01:40:04;;;;;;;;;18.50;18.00;;;;;26.52;45.27;100990.09;146615;569;46017;-67
2023/07/13 01:43:16;;;;;;;;;23.00;21.25;;;;;26.44;45.67;100993.66;146615;622;46020;-69
2023/07/13 01:46:09;;;;;;;;;21.50;19.00;;;;;26.37;45.83;100983.13;146613;636;47012;-69
2023/07/13 01:49:15;;;;;;;;;19.50;18.50;;;;;26.38;45.74;100990.19;146618;564;46020;-69
2023/07/13 01:52:16;;;;;;;;;21.00;17.75;;;;;26.33;45.79;100987.59;146613;654;47012;-66
2023/07/13 01:55:15;;;;;;;;;17.00;16.25;;;;;26.28;45.85;100994.72;146617;597;46010;-64
2023/07/13 01:58:26;;;;;;;;;18.00;17.00;;;;;26.22;45.21;100995.63;146608;593;47012;-66
2023/07/13 02:01:36;;;;;;;;;19.75;18.00;;;;;26.18;45.65;100993.91;146617;618;46028;-65
2023/07/13 02:04:43;;;;;;;;;23.00;21.50;;;;;26.19;45.43;100995.66;146614;615;46016;-65
2023/07/13 02:07:50;;;;;;;;;21.75;20.75;;;;;26.19;45.23;100990.34;146613;572;46020;-66
2023/07/13 02:10:54;;;;;;;;;19.75;18.00;;;;;26.18;45.27;100998.34;146613;564;46917;-64
2023/07/13 02:13:57;;;;;;;;;;;;;;;;;;;;;
2023/07/13 02:16:58;;;;;;;;;20.50;19.25;;;;;26.14;45.75;100999.28;146613;688;46016;-65
2023/07/13 02:20:33;;;;;;;;;20.75;17.25;;;;;26.10;45.30;100989.56;146615;617;46020;-65
2023/07/13 02:23:31;;;;;;;;;20.50;18.75;;;;;26.10;45.10;100998.41;146609;620;48918;-65
2023/07/13 02:26:32;;;;;;;;;21.25;19.50;;;;;26.14;45.64;101005.47;146614;615;46020;-64
2023/07/13 02:29:51;;;;;;;;;23.00;20.50;;;;;26.17;44.84;101001.91;146613;674;46016;-64
2023/07/13 02:32:44;;;;;;;;;23.50;22.00;;;;;26.20;45.14;101008.09;146616;574;46010;-64
2023/07/13 02:35:39;;;;;;;;;19.75;18.25;;;;;26.26;44.96;101012.44;146608;691;46014;-64
2023/07/13 02:38:42;;;;;;;;;21.25;19.50;;;;;26.31;44.39;101017.72;146618;604;46012;-66
2023/07/13 02:41:36;;;;;;;;;20.75;19.00;;;;;26.29;44.59;101017.72;146614;577;47012;-65
2023/07/13 02:44:51;;;;;;;;;23.00;18.50;;;;;26.22;45.24;101016.91;146614;667;46020;-65
2023/07/13 02:47:56;;;;;;;;;18.00;16.75;;;;;26.16;45.14;101016.06;146614;570;46019;-65
2023/07/13 02:50:55;;;;;;;;;18.00;16.75;;;;;26.07;45.50;101018.81;146617;597;46010;-65
2023/07/13 02:53:58;;;;;;;;;21.00;18.75;;;;;25.99;45.54;101021.53;146614;578;46016;-65
2023/07/13 02:57:16;;;;;;;;;22.75;20.75;;;;;25.92;45.92;101022.44;146613;654;46020;-64
2023/07/13 03:00:28;;;;;;;;;21.25;19.25;;;;;24.46;45.94;100786.22;146610;584;46016;-64
2023/07/13 03:03:28;;;;;;;;;19.25;18.25;;;;;25.73;46.63;101019.00;146618;585;46020;-65
2023/07/13 03:06:30;;;;;;;;;22.25;19.75;;;;;25.67;46.61;101012.00;146614;600;46012;-64
2023/07/13 03:09:35;;;;;;;;;18.25;17.75;;;;;25.62;46.43;101013.78;146615;588;46034;-66
2023/07/13 03:12:41;;;;;;;;;25.75;22.00;;;;;25.60;46.67;101022.66;146617;566;46012;-64
2023/07/13 03:15:44;;;;;;;;;22.25;21.25;;;;;25.56;46.47;101014.69;146614;610;46010;-64
2023/07/13 03:18:46;;;;;;;;;25.00;20.00;;;;;25.57;46.46;101013.78;146608;602;47919;-64
2023/07/13 03:21:59;;;;;;;;;23.50;20.00;;;;;25.61;45.96;101019.09;146613;618;46020;-67
2023/07/13 03:24:56;;;;;;;;;21.50;19.25;;;;;25.65;46.02;101019.06;146611;606;47013;-66
2023/07/13 03:28:14;;;;;;;;;21.50;20.25;;;;;23.14;45.77;100582.75;146606;629;47010;-66
2023/07/13 03:31:38;;;;;;;;;18.00;15.75;;;;;22.95;45.30;100537.84;146614;571;46017;-65
2023/07/13 03:34:32;;;;;;;;;22.25;18.25;;;;;25.79;46.24;101016.31;146614;578;46020;-65
2023/07/13 03:37:32;;;;;;;;;21.00;17.50;;;;;25.84;45.31;101019.00;146614;601;46022;-64
2023/07/13 03:40:43;;;;;;;;;20.75;18.25;;;;;25.87;44.49;101024.28;146615;591;46021;-63
2023/07/13 03:43:54;;;;;;;;;20.50;19.25;;;;;25.89;45.15;101023.37;146613;587;47016;-64
2023/07/13 03:47:09;;;;;;;;;23.00;20.25;;;;;23.54;44.26;100607.31;146616;672;46021;-64
2023/07/13 03:50:18;;;;;;;;;17.25;16.50;;;;;26.00;44.00;101024.16;146615;573;47012;-64
2023/07/13 03:53:11;;;;;;;;;19.25;19.00;;;;;26.10;44.93;101024.97;146615;609;46010;-64
2023/07/13 03:56:06;;;;;;;;;13.75;13.75;;;;;26.18;44.60;101031.13;146615;614;46012;-63
2023/07/13 03:59:25;;;;;;;;;19.25;16.50;;;;;26.27;45.41;101027.50;146614;757;46020;-63
2023/07/13 04:02:27;;;;;;;;;16.50;15.50;;;;;26.37;45.27;101028.31;146614;612;46014;-65
2023/07/13 04:05:33;;;;;;;;;15.00;15.00;;;;;26.42;44.86;101026.50;146613;583;47012;-64
2023/07/13 04:08:46;;;;;;;;;21.50;19.25;;;;;26.42;45.24;101026.50;146612;636;46017;-65
2023/07/13 04:11:45;;;;;;;;;20.00;17.75;;;;;26.52;45.75;101038.84;146615;647;46027;-65
2023/07/13 04:15:01;;;;;;;;;18.75;16.25;;;;;26.59;45.39;101034.34;146612;633;46016;-66
2023/07/13 04:18:03;;;;;;;;;21.00;20.00;;;;;26.65;46.40;101034.28;146616;702;46010;-66
2023/07/13 04:21:06;;;;;;;;;21.75;19.50;;;;;26.73;46.31;101043.06;146611;595;46016;-64
2023/07/13 04:24:03;;;;;;;;;22.75;19.00;;;;;26.84;46.56;101043.81;146633;570;45012;-64
2023/07/13 04:27:04;;;;;;;;;21.00;18.75;;;;;26.95;46.16;101041.94;146632;633;45012;-64
2023/07/13 04:30:02;;;;;;;;;21.25;19.50;;;;;27.10;46.81;101056.84;146631;606;46010;-64
2023/07/13 04:32:58;;;;;;;;;22.00;21.00;;;;;27.23;45.78;101057.63;146631;580;45017;-64
2023/07/13 04:35:59;;;;;;;;;24.25;21.25;;;;;27.35;45.93;101059.22;146632;563;46020;-64
2023/07/13 04:38:57;;;;;;;;;21.50;20.25;;;;;27.44;45.98;101056.44;146632;604;46014;-64
2023/07/13 04:41:55;;;;;;;;;19.75;19.25;;;;;27.50;46.05;101059.03;146632;623;46010;-64
2023/07/13 04:45:15;;;;;;;;;22.75;20.75;;;;;27.60;45.36;101059.78;146630;629;45016;-64
2023/07/13 04:48:13;;;;;;;;;23.25;22.00;;;;;27.73;45.76;101055.19;146633;609;45021;-65
2023/07/13 04:51:10;;;;;;;;;20.00;18.00;;;;;27.85;45.18;101055.00;146633;584;45016;-66
2023/07/13 04:54:11;;;;;;;;;23.00;20.75;;;;;27.96;44.73;101057.53;146630;565;45020;-65
2023/07/13 04:57:14;;;;;;;;;23.25;21.00;;;;;28.08;44.05;101055.56;146629;616;46916;-65
2023/07/13 05:00:50;;;;;;;;;21.50;20.50;;;;;28.29;44.58;101053.47;146633;645;46010;-64
2023/07/13 05:03:45;;;;;;;;;21.50;19.50;;;;;28.52;43.52;101051.28;146629;584;46016;-65
2023/07/13 05:06:43;;;;;;;;;20.25;18.75;;;;;28.75;42.94;101063.34;146631;586;46010;-66
2023/07/13 05:09:51;;;;;;;;;23.25;22.00;;;;;28.97;41.31;101067.37;146632;582;45017;-66
2023/07/13 05:12:47;;;;;;;;;22.50;21.75;;;;;29.13;41.11;101069.75;146635;569;45020;-64
2023/07/13 05:15:54;;;;;;;;;24.25;19.50;;;;;29.24;40.35;101059.75;146627;664;46016;-66
2023/07/13 18:30:26;;;;;;;;;18.25;17.75;;;;;32.74;45.60;100792.31;146632;574;47010;-75
2023/07/13 18:33:29;;;;;;;;;23.50;20.50;;;;;32.65;44.69;100791.75;146612;628;46016;-75
2023/07/13 18:36:24;;;;;;;;;24.50;22.25;;;;;32.55;46.64;100795.72;146611;611;47008;-74
2023/07/13 18:39:18;;;;;;;;;20.75;19.75;;;;;32.43;45.80;100797.09;146611;581;46012;-75
2023/07/13 18:42:15;;;;;;;;;19.50;19.00;;;;;32.31;45.61;100793.97;146612;631;46008;-75
2023/07/13 18:45:17;;;;;;;;;23.75;21.00;;;;;32.18;46.13;100786.37;146611;593;46016;-75
2023/07/13 18:48:17;;;;;;;;;24.25;21.00;;;;;32.08;44.42;100789.44;146613;593;46008;-76
2023/07/13 18:51:23;;;;;;;;;18.75;17.50;;;;;31.99;44.06;100787.97;146610;591;46913;-75
2023/07/13 18:54:20;;;;;;;;;20.75;20.00;;;;;31.96;43.50;100798.81;146613;600;47008;-75
2023/07/13 18:57:20;;;;;;;;;21.00;18.25;;;;;31.87;42.93;100799.09;146611;676;47010;-75
2023/07/13 19:00:17;;;;;;;;;18.75;17.50;;;;;31.83;43.23;100800.16;146611;565;47029;-76
2023/07/13 19:03:21;;;;;;;;;17.50;14.75;;;;;31.79;42.31;100804.75;146607;613;46913;-75
2023/07/13 19:06:37;;;;;;;;;24.25;21.75;;;;;31.77;42.48;100809.28;146616;593;46008;-76
2023/07/13 19:09:39;;;;;;;;;21.00;20.00;;;;;31.72;42.56;100817.50;146611;577;46010;-75
2023/07/13 19:13:02;;;;;;;;;21.00;19.25;;;;;31.67;41.49;100813.22;146612;580;46020;-76
2023/07/13 19:16:00;;;;;;;;;19.50;18.00;;;;;31.60;42.56;100822.41;146610;615;46010;-74
2023/07/13 19:18:58;;;;;;;;;22.50;20.00;;;;;31.52;42.92;100815.50;146612;577;46023;-75
2023/07/13 19:22:15;;;;;;;;;23.25;20.00;;;;;31.46;42.00;100820.19;146608;592;47913;-75
2023/07/13 19:25:19;;;;;;;;;18.75;18.25;;;;;31.40;42.67;100823.06;146613;576;47008;-76
2023/07/13 19:28:42;;;;;;;;;20.50;19.00;;;;;31.28;42.47;100819.87;146609;609;47010;-75
2023/07/13 19:31:58;;;;;;;;;17.50;16.75;;;;;30.39;42.25;100693.31;146614;686;46027;-75
2023/07/13 19:34:56;;;;;;;;;20.50;16.75;;;;;31.06;43.44;100830.41;146610;563;46016;-75
2023/07/13 19:37:58;;;;;;;;;23.00;19.50;;;;;30.97;43.33;100827.16;146613;590;46009;-75
2023/07/13 19:40:50;;;;;;;;;19.50;19.00;;;;;30.94;42.08;100829.91;146608;735;47913;-75
2023/07/13 19:43:59;;;;;;;;;19.50;16.75;;;;;30.93;42.24;100838.84;146611;564;46020;-74
2023/07/13 19:46:58;;;;;;;;;21.75;20.00;;;;;30.90;42.27;100828.25;146609;625;46016;-74
2023/07/13 19:49:53;;;;;;;;;21.25;19.00;;;;;30.84;42.46;100840.00;146612;587;46008;-74
2023/07/13 19:52:55;;;;;;;;;19.25;19.25;;;;;30.77;42.95;100836.66;146609;631;47021;-75
2023/07/13 19:55:54;;;;;;;;;21.00;19.25;;;;;30.72;43.45;100837.72;146612;602;47012;-75
2023/07/13 19:58:46;;;;;;;;;22.50;21.25;;;;;30.68;43.29;100831.53;146609;597;46913;-74
2023/07/13 20:01:43;;;;;;;;;22.00;18.75;;;;;30.67;41.88;100840.50;146614;609;46020;-75
2023/07/13 20:04:41;;;;;;;;;16.50;15.25;;;;;30.63;41.92;100830.81;146607;577;47010;-78
2023/07/13 20:07:36;;;;;;;;;22.00;19.25;;;;;30.58;41.96;100836.28;146612;610;46020;-74
2023/07/13 20:10:34;;;;;;;;;18.00;16.75;;;;;30.56;42.41;100840.84;146607;588;47016;-71
2023/07/13 20:13:31;;;;;;;;;20.00;18.75;;;;;30.61;41.37;100840.69;146612;588;46020;-71
2023/07/13 20:16:24;;;;;;;;;19.25;16.50;;;;;30.64;41.69;100840.59;146609;580;46017;-73
2023/07/13 20:19:39;;;;;;;;;20.00;17.50;;;;;30.60;41.36;100844.31;146612;565;48008;-72
2023/07/13 20:22:43;;;;;;;;;17.00;15.75;;;;;30.52;41.41;100843.63;146606;609;46915;-73
2023/07/13 20:25:38;;;;;;;;;19.50;17.75;;;;;30.38;41.94;100857.44;146612;661;47008;-73
2023/07/13 20:28:33;;;;;;;;;20.00;18.00;;;;;30.23;42.34;100858.72;146607;578;46016;-74
2023/07/13 20:31:25;;;;;;;;;17.75;15.75;;;;;30.09;42.21;100860.87;146609;610;47008;-73
2023/07/13 20:34:44;;;;;;;;;17.00;15.75;;;;;29.99;42.33;100854.91;146607;629;46016;-72
2023/07/13 20:37:42;;;;;;;;;18.00;15.50;;;;;29.88;42.52;100863.22;146606;615;47012;-74
2023/07/13 20:40:37;;;;;;;;;17.00;17.00;;;;;29.81;43.51;100864.28;146604;565;47016;-75
2023/07/13 20:43:34;;;;;;;;;22.00;19.00;;;;;29.75;43.35;100856.44;146607;622;47020;-73
2023/07/13 20:46:30;;;;;;;;;18.50;15.00;;;;;29.71;43.30;100854.75;146610;588;46016;-73
2023/07/13 20:49:27;;;;;;;;;18.00;17.00;;;;;29.68;43.41;100854.81;146609;582;46020;-75
2023/07/13 20:52:21;;;;;;;;;20.75;18.25;;;;;29.59;43.23;100850.56;146609;573;47011;-74
2023/07/13 20:55:24;;;;;;;;;21.50;18.50;;;;;29.50;43.56;100858.81;146613;599;47008;-72
2023/07/13 20:58:20;;;;;;;;;20.25;17.50;;;;;29.43;43.13;100852.75;146612;566;45915;-72
2023/07/13 21:01:41;;;;;;;;;20.25;17.75;;;;;29.40;43.03;100847.47;146612;571;46008;-74
2023/07/13 21:04:36;;;;;;;;;16.50;14.75;;;;;29.36;43.57;100845.81;146608;581;46915;-72
2023/07/13 21:07:30;;;;;;;;;19.25;16.75;;;;;29.39;43.83;100851.06;146610;585;46021;-73
2023/07/13 21:10:33;;;;;;;;;21.50;19.00;;;;;29.42;43.64;100845.66;146609;643;47016;-74
2023/07/13 21:13:29;;;;;;;;;21.25;19.50;;;;;29.41;44.04;100849.25;146612;595;46020;-74
2023/07/13 21:16:30;;;;;;;;;18.50;18.50;;;;;29.37;43.78;100838.66;146607;645;46017;-77
2023/07/13 21:19:28;;;;;;;;;19.75;19.25;;;;;29.33;44.10;100845.88;146612;658;46008;-77
2023/07/13 21:22:24;;;;;;;;;19.75;17.75;;;;;29.28;44.58;100837.09;146608;589;47012;-76
2023/07/13 21:25:40;;;;;;;;;18.50;15.50;;;;;28.32;43.20;100680.06;146610;614;46020;-75
2023/07/13 21:28:39;;;;;;;;;16.75;14.00;;;;;29.27;42.80;100838.00;146608;620;47010;-76
2023/07/13 21:31:41;;;;;;;;;15.75;15.50;;;;;29.26;42.71;100846.94;146612;563;48008;-76
2023/07/13 21:34:33;;;;;;;;;14.50;14.00;;;;;29.31;43.06;100839.69;146609;564;46016;-77
2023/07/13 21:37:29;;;;;;;;;15.75;15.75;;;;;29.34;42.52;100836.94;146611;628;47009;-75
2023/07/13 21:40:30;;;;;;;;;16.50;14.75;;;;;29.34;41.13;100836.94;146606;592;47016;-72
2023/07/13 21:43:32;;;;;;;;;;;;;;;;;;;;;
2023/07/13 21:46:30;;;;;;;;;15.75;15.75;;;;;29.33;41.17;100839.66;146610;583;46010;-73
2023/07/13 21:49:34;;;;;;;;;14.00;13.00;;;;;29.32;40.85;100838.78;146613;566;46024;-73
2023/07/13 21:52:29;;;;;;;;;14.50;14.50;;;;;29.31;40.23;100833.47;146606;586;47017;-70
2023/07/13 21:55:33;;;;;;;;;13.25;11.75;;;;;29.27;40.10;100840.69;146613;580;46008;-70
2023/07/13 21:58:36;;;;;;;;;14.25;13.75;;;;;29.24;40.65;100830.06;146605;590;47025;-68
2023/07/13 22:01:36;;;;;;;;;15.00;14.50;;;;;29.26;40.97;100832.72;146612;577;46008;-69
2023/07/13 22:04:38;;;;;;;;;18.75;17.00;;;;;29.27;41.35;100838.00;146609;584;46016;-69
2023/07/13 22:07:30;;;;;;;;;16.75;15.75;;;;;29.27;41.56;100835.34;146611;581;47008;-69
2023/07/13 22:10:25;;;;;;;;;17.00;14.25;;;;;29.28;41.25;100837.09;146611;580;46016;-69
2023/07/13 22:13:33;;;;;;;;;;;;;;;;;;;;;
2023/07/13 22:16:33;;;;;;;;;17.75;16.75;;;;;29.28;41.28;100836.22;146609;602;46010;-68
2023/07/13 22:19:34;;;;;;;;;18.75;15.75;;;;;29.27;41.36;100837.13;146610;604;47008;-69
2023/07/13 22:22:28;;;;;;;;;14.50;14.50;;;;;29.26;41.47;100830.94;146607;608;46010;-69
2023/07/13 22:25:26;;;;;;;;;15.50;14.50;;;;;29.24;41.92;100844.28;146611;602;46020;-70
2023/07/13 22:28:23;;;;;;;;;15.00;15.00;;;;;29.21;41.59;100841.69;146608;578;47012;-70
2023/07/13 22:31:18;;;;;;;;;17.25;15.50;;;;;29.13;42.35;100833.00;146610;581;47008;-71
2023/07/13 22:34:31;;;;;;;;;17.75;17.00;;;;;29.06;42.20;100839.38;146609;574;47010;-71
2023/07/13 22:37:27;;;;;;;;;17.75;16.00;;;;;29.02;42.81;100839.50;146610;578;46020;-70
2023/07/13 22:40:21;;;;;;;;;15.75;15.50;;;;;29.02;43.08;100836.84;146609;612;46915;-71
2023/07/13 22:43:28;;;;;;;;;17.00;16.25;;;;;29.05;42.65;100834.09;146614;643;46009;-70
2023/07/13 22:46:54;;;;;;;;;17.50;16.25;;;;;28.21;42.21;100677.63;146608;584;47010;-69
2023/07/13 22:50:00;;;;;;;;;16.25;14.50;;;;;29.17;42.73;100834.69;146612;679;46021;-71
2023/07/13 22:53:01;;;;;;;;;19.00;16.00;;;;;29.18;43.08;100827.56;146609;563;47010;-71
2023/07/13 22:55:53;;;;;;;;;16.25;14.25;;;;;29.16;43.84;100827.59;146613;697;46020;-69
2023/07/13 22:58:45;;;;;;;;;16.00;15.00;;;;;29.13;44.40;100825.00;146605;595;47010;-69
2023/07/13 23:01:52;;;;;;;;;15.75;15.00;;;;;29.10;44.70;100819.75;146614;683;46008;-68
2023/07/13 23:04:48;;;;;;;;;16.50;14.00;;;;;29.05;44.56;100818.97;146607;608;47041;-72
2023/07/13 23:07:46;;;;;;;;;17.25;15.25;;;;;28.93;44.04;100812.06;146611;607;47008;-72
2023/07/13 23:10:38;;;;;;;;;16.75;16.75;;;;;28.92;44.51;100809.47;146609;581;46010;-69
2023/07/13 23:13:33;;;;;;;;;14.00;14.00;;;;;28.89;44.21;100805.06;146613;597;47008;-70
2023/07/13 23:16:34;;;;;;;;;15.50;15.00;;;;;28.88;45.07;100807.75;146608;629;47010;-70
2023/07/13 23:20:06;;;;;;;;;15.75;15.75;;;;;28.89;44.21;100806.84;146613;570;46009;-71
2023/07/13 23:23:00;;;;;;;;;13.25;12.25;;;;;28.88;44.74;100797.06;146609;564;46010;-69
2023/07/13 23:25:53;;;;;;;;;17.00;16.00;;;;;28.90;44.33;100796.13;146611;607;46008;-71
2023/07/13 23:28:54;;;;;;;;;14.50;12.50;;;;;28.87;44.47;100790.88;146609;579;47010;-72
2023/07/13 23:31:49;;;;;;;;;15.75;15.00;;;;;28.85;44.75;100787.38;146611;565;46008;-71
2023/07/13 23:34:45;;;;;;;;;17.50;17.00;;;;;28.85;44.78;100787.38;146609;569;47011;-70
2023/07/13 23:37:40;;;;;;;;;20.75;17.75;;;;;28.86;44.54;100785.56;146610;753;46018;-69
2023/07/13 23:40:32;;;;;;;;;16.25;15.25;;;;;28.82;45.02;100782.09;146609;654;46010;-69
2023/07/13 23:43:24;;;;;;;;;16.50;14.75;;;;;28.83;44.58;100778.50;146608;577;46020;-69
2023/07/13 23:46:48;;;;;;;;;16.00;15.00;;;;;28.85;43.67;100771.38;146609;586;47010;-70
2023/07/13 23:49:43;;;;;;;;;15.00;14.50;;;;;28.87;44.82;100779.31;146613;585;46008;-69
2023/07/13 23:52:40;;;;;;;;;16.75;14.75;;;;;28.82;44.50;100779.44;146608;618;46016;-72
2023/07/13 23:55:38;;;;;;;;;14.75;14.75;;;;;28.74;44.58;100776.06;146604;600;47020;-68
2023/07/13 23:58:42;;;;;;;;;16.00;14.25;;;;;27.74;43.82;100623.53;146610;573;46016;-72
